sensor_id;sensor_type;location;lat;lon;timestamp;temperature;humidity
61374;DHT22;47242;48.158;-1.586;2023-01-31T05:32:21;8.10;77.80
61374;DHT22;47242;48.158;-1.586;2023-01-31T05:34:46;8.00;77.70
61374;DHT22;47242;48.158;-1.586;2023-01-31T05:37:12;8.00;77.60
61374;DHT22;47242;48.158;-1.586;2023-01-31T05:39:38;8.00;77.40
61374;DHT22;47242;48.158;-1.586;2023-01-31T05:42:03;8.00;77.20
61374;DHT22;47242;48.158;-1.586;2023-01-31T05:44:29;8.10;77.30
61374;DHT22;47242;48.158;-1.586;2023-01-31T05:46:56;8.10;77.00
61374;DHT22;47242;48.158;-1.586;2023-01-31T05:49:22;8.00;77.30
61374;DHT22;47242;48.158;-1.586;2023-01-31T05:51:48;8.10;76.80
61374;DHT22;47242;48.158;-1.586;2023-01-31T05:54:14;8.10;76.10
61374;DHT22;47242;48.158;-1.586;2023-01-31T05:59:28;8.20;76.90
61374;DHT22;47242;48.158;-1.586;2023-01-31T06:01:55;8.10;76.80
61374;DHT22;47242;48.158;-1.586;2023-01-31T06:04:27;8.20;76.90
61374;DHT22;47242;48.158;-1.586;2023-01-31T06:06:52;8.10;77.10
61374;DHT22;47242;48.158;-1.586;2023-01-31T06:09:18;8.10;77.10
61374;DHT22;47242;48.158;-1.586;2023-01-31T06:11:44;8.10;77.00
61374;DHT22;47242;48.158;-1.586;2023-01-31T06:14:11;8.00;77.00
61374;DHT22;47242;48.158;-1.586;2023-01-31T06:16:37;8.00;77.10
61374;DHT22;47242;48.158;-1.586;2023-01-31T06:19:02;8.00;77.20
61374;DHT22;47242;48.158;-1.586;2023-01-31T06:21:28;8.00;77.20
61374;DHT22;47242;48.158;-1.586;2023-01-31T06:23:54;8.00;77.50
61374;DHT22;47242;48.158;-1.586;2023-01-31T06:26:20;8.00;77.30
61374;DHT22;47242;48.158;-1.586;2023-01-31T06:28:45;8.00;77.50
61374;DHT22;47242;48.158;-1.586;2023-01-31T06:31:12;8.00;77.60
61374;DHT22;47242;48.158;-1.586;2023-01-31T06:33:37;8.00;77.10
61374;DHT22;47242;48.158;-1.586;2023-01-31T06:36:04;8.00;77.50
61374;DHT22;47242;48.158;-1.586;2023-01-31T06:38:30;8.00;77.60
61374;DHT22;47242;48.158;-1.586;2023-01-31T06:40:56;7.90;77.70
61374;DHT22;47242;48.158;-1.586;2023-01-31T06:43:22;8.00;77.70
61374;DHT22;47242;48.158;-1.586;2023-01-31T06:45:47;7.90;77.40
61374;DHT22;47242;48.158;-1.586;2023-01-31T06:48:14;8.00;77.40
61374;DHT22;47242;48.158;-1.586;2023-01-31T06:50:40;8.00;77.80
61374;DHT22;47242;48.158;-1.586;2023-01-31T06:53:06;8.00;77.00
61374;DHT22;47242;48.158;-1.586;2023-01-31T06:55:31;8.00;77.40
61374;DHT22;47242;48.158;-1.586;2023-01-31T06:57:57;8.00;77.50
61374;DHT22;47242;48.158;-1.586;2023-01-31T07:00:23;8.00;77.10
61374;DHT22;47242;48.158;-1.586;2023-01-31T07:02:50;8.00;77.10
61374;DHT22;47242;48.158;-1.586;2023-01-31T07:05:19;8.00;77.20
61374;DHT22;47242;48.158;-1.586;2023-01-31T07:07:46;8.00;77.00
61374;DHT22;47242;48.158;-1.586;2023-01-31T07:10:12;8.00;76.90
61374;DHT22;47242;48.158;-1.586;2023-01-31T07:12:38;8.00;76.70
61374;DHT22;47242;48.158;-1.586;2023-01-31T07:15:04;8.00;77.00
61374;DHT22;47242;48.158;-1.586;2023-01-31T07:17:30;8.00;77.20
61374;DHT22;47242;48.158;-1.586;2023-01-31T07:19:57;8.00;77.00
61374;DHT22;47242;48.158;-1.586;2023-01-31T07:22:23;8.00;77.10
61374;DHT22;47242;48.158;-1.586;2023-01-31T07:24:49;7.90;76.60
61374;DHT22;47242;48.158;-1.586;2023-01-31T07:27:15;7.90;76.90
61374;DHT22;47242;48.158;-1.586;2023-01-31T07:29:41;7.90;76.30
61374;DHT22;47242;48.158;-1.586;2023-01-31T07:32:08;7.90;76.50
61374;DHT22;47242;48.158;-1.586;2023-01-31T07:34:34;8.00;76.70
61374;DHT22;47242;48.158;-1.586;2023-01-31T07:36:59;8.00;76.60
61374;DHT22;47242;48.158;-1.586;2023-01-31T07:39:26;8.00;76.80
61374;DHT22;47242;48.158;-1.586;2023-01-31T07:41:54;8.00;76.70
61374;DHT22;47242;48.158;-1.586;2023-01-31T07:44:19;8.00;76.90
61374;DHT22;47242;48.158;-1.586;2023-01-31T07:46:45;8.00;77.00
61374;DHT22;47242;48.158;-1.586;2023-01-31T07:49:11;8.00;76.30
61374;DHT22;47242;48.158;-1.586;2023-01-31T07:51:37;8.00;76.30
61374;DHT22;47242;48.158;-1.586;2023-01-31T07:54:04;8.10;76.80
61374;DHT22;47242;48.158;-1.586;2023-01-31T07:56:30;8.10;76.50
61374;DHT22;47242;48.158;-1.586;2023-01-31T07:58:58;8.10;76.30
61374;DHT22;47242;48.158;-1.586;2023-01-31T08:01:25;8.10;76.40
61374;DHT22;47242;48.158;-1.586;2023-01-31T08:04:12;8.10;76.40
61374;DHT22;47242;48.158;-1.586;2023-01-31T08:06:39;8.10;76.50
61374;DHT22;47242;48.158;-1.586;2023-01-31T08:09:05;8.10;76.00
61374;DHT22;47242;48.158;-1.586;2023-01-31T08:11:30;8.10;76.40
61374;DHT22;47242;48.158;-1.586;2023-01-31T08:13:56;8.20;76.20
61374;DHT22;47242;48.158;-1.586;2023-01-31T08:16:22;8.20;75.90
61374;DHT22;47242;48.158;-1.586;2023-01-31T08:18:48;8.20;76.10
61374;DHT22;47242;48.158;-1.586;2023-01-31T08:21:14;8.20;76.10
61374;DHT22;47242;48.158;-1.586;2023-01-31T08:23:40;8.30;75.80
61374;DHT22;47242;48.158;-1.586;2023-01-31T08:26:10;8.30;76.30
61374;DHT22;47242;48.158;-1.586;2023-01-31T08:28:37;8.30;76.00
61374;DHT22;47242;48.158;-1.586;2023-01-31T08:31:04;8.30;75.90
61374;DHT22;47242;48.158;-1.586;2023-01-31T08:33:30;8.30;75.80
61374;DHT22;47242;48.158;-1.586;2023-01-31T08:35:55;8.30;76.30
61374;DHT22;47242;48.158;-1.586;2023-01-31T08:38:21;8.40;76.10
61374;DHT22;47242;48.158;-1.586;2023-01-31T08:40:47;8.40;75.90
61374;DHT22;47242;48.158;-1.586;2023-01-31T08:43:13;8.40;75.80
61374;DHT22;47242;48.158;-1.586;2023-01-31T08:45:39;8.40;75.40
61374;DHT22;47242;48.158;-1.586;2023-01-31T08:48:05;8.50;75.60
61374;DHT22;47242;48.158;-1.586;2023-01-31T08:50:31;8.50;75.60
61374;DHT22;47242;48.158;-1.586;2023-01-31T08:52:59;8.50;75.10
61374;DHT22;47242;48.158;-1.586;2023-01-31T08:55:26;8.60;75.20
61374;DHT22;47242;48.158;-1.586;2023-01-31T08:57:52;8.70;75.10
61374;DHT22;47242;48.158;-1.586;2023-01-31T09:00:20;8.70;74.90
61374;DHT22;47242;48.158;-1.586;2023-01-31T09:02:57;8.70;75.10
61374;DHT22;47242;48.158;-1.586;2023-01-31T09:05:24;8.70;75.00
61374;DHT22;47242;48.158;-1.586;2023-01-31T09:07:51;8.70;74.90
61374;DHT22;47242;48.158;-1.586;2023-01-31T09:10:17;8.80;75.00
61374;DHT22;47242;48.158;-1.586;2023-01-31T09:12:43;8.80;74.50
61374;DHT22;47242;48.158;-1.586;2023-01-31T09:15:09;8.80;75.00
61374;DHT22;47242;48.158;-1.586;2023-01-31T09:17:35;8.80;74.90
61374;DHT22;47242;48.158;-1.586;2023-01-31T09:20:01;8.80;74.60
61374;DHT22;47242;48.158;-1.586;2023-01-31T09:22:32;8.80;74.40
61374;DHT22;47242;48.158;-1.586;2023-01-31T09:24:58;8.80;74.80
61374;DHT22;47242;48.158;-1.586;2023-01-31T09:27:25;8.90;74.70
61374;DHT22;47242;48.158;-1.586;2023-01-31T09:29:50;8.90;74.40
61374;DHT22;47242;48.158;-1.586;2023-01-31T09:32:16;9.00;74.40
61374;DHT22;47242;48.158;-1.586;2023-01-31T09:34:42;9.30;74.10
61374;DHT22;47242;48.158;-1.586;2023-01-31T09:37:07;9.50;73.50
61374;DHT22;47242;48.158;-1.586;2023-01-31T09:39:33;9.70;72.90
61374;DHT22;47242;48.158;-1.586;2023-01-31T09:44:41;9.80;72.40
61374;DHT22;47242;48.158;-1.586;2023-01-31T09:47:15;10.40;71.00
61374;DHT22;47242;48.158;-1.586;2023-01-31T09:49:51;11.20;70.40
61374;DHT22;47242;48.158;-1.586;2023-01-31T09:52:20;11.80;67.50
61374;DHT22;47242;48.158;-1.586;2023-01-31T09:54:46;11.70;66.30
61374;DHT22;47242;48.158;-1.586;2023-01-31T10:07:37;11.00;67.60
61374;DHT22;47242;48.158;-1.586;2023-01-31T10:10:14;11.00;68.00
61374;DHT22;47242;48.158;-1.586;2023-01-31T10:12:49;10.90;67.40
61374;DHT22;47242;48.158;-1.586;2023-01-31T10:15:28;10.80;67.70
61374;DHT22;47242;48.158;-1.586;2023-01-31T10:17:59;10.80;67.90
61374;DHT22;47242;48.158;-1.586;2023-01-31T10:20:43;10.70;68.00
61374;DHT22;47242;48.158;-1.586;2023-01-31T10:23:22;10.70;68.50
61374;DHT22;47242;48.158;-1.586;2023-01-31T10:25:51;10.60;68.70
61374;DHT22;47242;48.158;-1.586;2023-01-31T10:28:30;10.60;68.50
61374;DHT22;47242;48.158;-1.586;2023-01-31T10:31:06;10.50;69.00
61374;DHT22;47242;48.158;-1.586;2023-01-31T10:33:46;10.50;68.80
61374;DHT22;47242;48.158;-1.586;2023-01-31T10:36:28;10.50;68.70
61374;DHT22;47242;48.158;-1.586;2023-01-31T10:41:42;10.50;69.20
61374;DHT22;47242;48.158;-1.586;2023-01-31T10:44:20;10.60;69.30
61374;DHT22;47242;48.158;-1.586;2023-01-31T10:46:47;10.50;68.20
61374;DHT22;47242;48.158;-1.586;2023-01-31T10:49:12;10.60;68.50
61374;DHT22;47242;48.158;-1.586;2023-01-31T10:51:57;10.60;68.40
61374;DHT22;47242;48.158;-1.586;2023-01-31T10:57:29;10.70;68.30
61374;DHT22;47242;48.158;-1.586;2023-01-31T10:59:56;10.90;68.10
61374;DHT22;47242;48.158;-1.586;2023-01-31T11:02:24;10.90;67.60
61374;DHT22;47242;48.158;-1.586;2023-01-31T11:04:52;11.10;66.80
61374;DHT22;47242;48.158;-1.586;2023-01-31T11:07:19;11.30;66.50
61374;DHT22;47242;48.158;-1.586;2023-01-31T11:09:50;11.50;66.20
61374;DHT22;47242;48.158;-1.586;2023-01-31T11:12:22;11.50;65.80
61374;DHT22;47242;48.158;-1.586;2023-01-31T11:15:05;11.60;65.60
61374;DHT22;47242;48.158;-1.586;2023-01-31T11:17:35;11.50;66.60
61374;DHT22;47242;48.158;-1.586;2023-01-31T11:20:03;11.60;66.40
61374;DHT22;47242;48.158;-1.586;2023-01-31T11:22:32;11.70;66.60
61374;DHT22;47242;48.158;-1.586;2023-01-31T11:25:01;11.80;66.00
61374;DHT22;47242;48.158;-1.586;2023-01-31T11:27:39;11.90;65.80
61374;DHT22;47242;48.158;-1.586;2023-01-31T11:32:52;12.00;65.00
61374;DHT22;47242;48.158;-1.586;2023-01-31T11:40:27;12.00;65.50
61374;DHT22;47242;48.158;-1.586;2023-01-31T11:42:59;12.00;66.50
61374;DHT22;47242;48.158;-1.586;2023-01-31T11:45:31;12.00;66.00
61374;DHT22;47242;48.158;-1.586;2023-01-31T11:48:06;12.00;66.40
61374;DHT22;47242;48.158;-1.586;2023-01-31T11:50:37;12.00;65.40
61374;DHT22;47242;48.158;-1.586;2023-01-31T11:53:17;11.90;65.90
61374;DHT22;47242;48.158;-1.586;2023-01-31T11:55:43;11.90;66.20
61374;DHT22;47242;48.158;-1.586;2023-01-31T12:01:00;11.80;66.30
61374;DHT22;47242;48.158;-1.586;2023-01-31T12:03:27;11.80;66.00
61374;DHT22;47242;48.158;-1.586;2023-01-31T12:06:07;11.70;66.50
61374;DHT22;47242;48.158;-1.586;2023-01-31T12:08:38;11.70;66.70
61374;DHT22;47242;48.158;-1.586;2023-01-31T12:14:16;11.70;66.90
61374;DHT22;47242;48.158;-1.586;2023-01-31T12:16:45;11.60;67.00
61374;DHT22;47242;48.158;-1.586;2023-01-31T12:19:24;11.70;67.00
61374;DHT22;47242;48.158;-1.586;2023-01-31T12:22:05;11.60;66.40
61374;DHT22;47242;48.158;-1.586;2023-01-31T12:28:00;11.60;67.00
61374;DHT22;47242;48.158;-1.586;2023-01-31T12:31:00;11.70;67.30
61374;DHT22;47242;48.158;-1.586;2023-01-31T12:37:35;11.50;67.10
61374;DHT22;47242;48.158;-1.586;2023-01-31T12:42:40;11.50;68.30
61374;DHT22;47242;48.158;-1.586;2023-01-31T13:01:41;11.80;67.50
61374;DHT22;47242;48.158;-1.586;2023-01-31T13:07:00;11.80;67.60
61374;DHT22;47242;48.158;-1.586;2023-01-31T13:09:31;11.80;67.80
61374;DHT22;47242;48.158;-1.586;2023-01-31T13:12:17;11.80;67.00
61374;DHT22;47242;48.158;-1.586;2023-01-31T13:14:59;11.80;67.90
61374;DHT22;47242;48.158;-1.586;2023-01-31T13:17:29;11.80;67.50
61374;DHT22;47242;48.158;-1.586;2023-01-31T13:20:07;11.90;67.40
61374;DHT22;47242;48.158;-1.586;2023-01-31T13:22:45;12.10;67.70
61374;DHT22;47242;48.158;-1.586;2023-01-31T13:25:20;12.30;67.20
61374;DHT22;47242;48.158;-1.586;2023-01-31T13:31:08;12.40;66.80
61374;DHT22;47242;48.158;-1.586;2023-01-31T13:33:56;12.40;66.50
61374;DHT22;47242;48.158;-1.586;2023-01-31T13:42:02;12.70;66.90
61374;DHT22;47242;48.158;-1.586;2023-01-31T13:44:28;12.70;66.60
61374;DHT22;47242;48.158;-1.586;2023-01-31T13:47:13;12.70;67.00
61374;DHT22;47242;48.158;-1.586;2023-01-31T13:54:58;12.70;66.90
61374;DHT22;47242;48.158;-1.586;2023-01-31T13:57:30;12.70;66.70
61374;DHT22;47242;48.158;-1.586;2023-01-31T14:03:09;12.70;67.00
61374;DHT22;47242;48.158;-1.586;2023-01-31T14:08:55;12.50;67.30
61374;DHT22;47242;48.158;-1.586;2023-01-31T14:14:17;12.50;68.00
61374;DHT22;47242;48.158;-1.586;2023-01-31T14:16:44;12.50;68.10
61374;DHT22;47242;48.158;-1.586;2023-01-31T14:22:11;12.70;67.80
61374;DHT22;47242;48.158;-1.586;2023-01-31T14:29:50;12.80;67.40
61374;DHT22;47242;48.158;-1.586;2023-01-31T14:32:38;12.80;67.40
61374;DHT22;47242;48.158;-1.586;2023-01-31T14:46:16;12.90;67.50
61374;DHT22;47242;48.158;-1.586;2023-01-31T14:57:46;12.80;67.40
61374;DHT22;47242;48.158;-1.586;2023-01-31T15:00:35;12.70;67.20
61374;DHT22;47242;48.158;-1.586;2023-01-31T15:03:03;12.70;67.80
61374;DHT22;47242;48.158;-1.586;2023-01-31T15:11:01;12.70;68.20
61374;DHT22;47242;48.158;-1.586;2023-01-31T15:13:35;12.70;68.30
61374;DHT22;47242;48.158;-1.586;2023-01-31T15:18:32;12.80;68.30
61374;DHT22;47242;48.158;-1.586;2023-01-31T15:21:01;12.80;68.60
61374;DHT22;47242;48.158;-1.586;2023-01-31T15:23:30;12.80;68.70
61374;DHT22;47242;48.158;-1.586;2023-01-31T15:25:57;12.70;68.10
61374;DHT22;47242;48.158;-1.586;2023-01-31T15:28:29;12.70;68.60
61374;DHT22;47242;48.158;-1.586;2023-01-31T15:31:00;12.60;68.80
61374;DHT22;47242;48.158;-1.586;2023-01-31T15:33:28;12.60;68.60
61374;DHT22;47242;48.158;-1.586;2023-01-31T15:35:57;12.50;68.90
61374;DHT22;47242;48.158;-1.586;2023-01-31T15:41:25;12.50;69.20
61374;DHT22;47242;48.158;-1.586;2023-01-31T15:43:55;12.50;69.40
61374;DHT22;47242;48.158;-1.586;2023-01-31T15:46:34;12.50;69.80
61374;DHT22;47242;48.158;-1.586;2023-01-31T15:49:00;12.50;69.90
61374;DHT22;47242;48.158;-1.586;2023-01-31T15:51:27;12.50;69.80
61374;DHT22;47242;48.158;-1.586;2023-01-31T15:54:04;12.40;69.80
61374;DHT22;47242;48.158;-1.586;2023-01-31T15:56:30;12.30;70.10
61374;DHT22;47242;48.158;-1.586;2023-01-31T15:58:57;12.30;70.20
61374;DHT22;47242;48.158;-1.586;2023-01-31T16:01:23;12.30;70.40
61374;DHT22;47242;48.158;-1.586;2023-01-31T16:03:56;12.30;70.30
61374;DHT22;47242;48.158;-1.586;2023-01-31T16:06:26;12.20;70.50
61374;DHT22;47242;48.158;-1.586;2023-01-31T16:08:56;12.20;70.50
61374;DHT22;47242;48.158;-1.586;2023-01-31T16:11:22;12.10;70.40
61374;DHT22;47242;48.158;-1.586;2023-01-31T16:13:51;12.00;70.90
61374;DHT22;47242;48.158;-1.586;2023-01-31T16:16:19;12.00;71.00
61374;DHT22;47242;48.158;-1.586;2023-01-31T16:18:54;12.00;71.20
61374;DHT22;47242;48.158;-1.586;2023-01-31T16:24:08;11.80;72.60
61374;DHT22;47242;48.158;-1.586;2023-01-31T16:26:39;11.80;73.30
61374;DHT22;47242;48.158;-1.586;2023-01-31T16:29:17;11.80;73.80
61374;DHT22;47242;48.158;-1.586;2023-01-31T16:31:47;11.80;75.10
61374;DHT22;47242;48.158;-1.586;2023-01-31T16:34:28;11.70;75.80
61374;DHT22;47242;48.158;-1.586;2023-01-31T16:41:52;11.70;76.60
61374;DHT22;47242;48.158;-1.586;2023-01-31T16:44:21;11.60;77.10
61374;DHT22;47242;48.158;-1.586;2023-01-31T16:46:50;11.60;77.30
61374;DHT22;47242;48.158;-1.586;2023-01-31T16:49:27;11.60;77.40
61374;DHT22;47242;48.158;-1.586;2023-01-31T16:52:26;11.50;78.00
61374;DHT22;47242;48.158;-1.586;2023-01-31T16:54:53;11.50;77.80
61374;DHT22;47242;48.158;-1.586;2023-01-31T16:59:59;11.30;78.20
61374;DHT22;47242;48.158;-1.586;2023-01-31T17:02:31;11.30;78.00
61374;DHT22;47242;48.158;-1.586;2023-01-31T17:05:00;11.30;78.60
61374;DHT22;47242;48.158;-1.586;2023-01-31T17:07:34;11.20;78.50
61374;DHT22;47242;48.158;-1.586;2023-01-31T17:10:06;11.20;78.60
61374;DHT22;47242;48.158;-1.586;2023-01-31T17:12:36;11.20;78.60
61374;DHT22;47242;48.158;-1.586;2023-01-31T17:15:12;11.20;78.60
61374;DHT22;47242;48.158;-1.586;2023-01-31T17:17:43;11.20;78.80
61374;DHT22;47242;48.158;-1.586;2023-01-31T17:20:12;11.20;78.80
61374;DHT22;47242;48.158;-1.586;2023-01-31T17:22:37;11.10;79.00
61374;DHT22;47242;48.158;-1.586;2023-01-31T17:25:24;11.10;78.90
61374;DHT22;47242;48.158;-1.586;2023-01-31T17:27:51;11.10;78.70
61374;DHT22;47242;48.158;-1.586;2023-01-31T17:30:18;11.10;78.80
61374;DHT22;47242;48.158;-1.586;2023-01-31T17:32:44;11.00;78.70
61374;DHT22;47242;48.158;-1.586;2023-01-31T17:35:19;11.00;78.90
61374;DHT22;47242;48.158;-1.586;2023-01-31T17:37:45;11.00;79.20
61374;DHT22;47242;48.158;-1.586;2023-01-31T17:40:11;11.00;79.10
61374;DHT22;47242;48.158;-1.586;2023-01-31T17:42:37;10.90;79.30
61374;DHT22;47242;48.158;-1.586;2023-01-31T17:45:03;10.90;79.30
61374;DHT22;47242;48.158;-1.586;2023-01-31T17:47:29;10.90;79.70
61374;DHT22;47242;48.158;-1.586;2023-01-31T17:49:55;10.90;79.40
61374;DHT22;47242;48.158;-1.586;2023-01-31T17:52:22;10.90;79.40
61374;DHT22;47242;48.158;-1.586;2023-01-31T17:54:48;10.80;79.60
61374;DHT22;47242;48.158;-1.586;2023-01-31T17:57:14;10.90;79.60
61374;DHT22;47242;48.158;-1.586;2023-01-31T17:59:39;10.90;79.60
61374;DHT22;47242;48.158;-1.586;2023-01-31T18:02:06;10.80;80.00
61374;DHT22;47242;48.158;-1.586;2023-01-31T18:04:31;10.90;79.90
61374;DHT22;47242;48.158;-1.586;2023-01-31T18:06:57;10.80;80.00
61374;DHT22;47242;48.158;-1.586;2023-01-31T18:09:23;10.90;79.90
61374;DHT22;47242;48.158;-1.586;2023-01-31T18:11:50;10.80;80.20
61374;DHT22;47242;48.158;-1.586;2023-01-31T18:14:16;10.80;80.20
61374;DHT22;47242;48.158;-1.586;2023-01-31T18:16:42;10.90;80.40
61374;DHT22;47242;48.158;-1.586;2023-01-31T18:19:07;10.90;80.50
61374;DHT22;47242;48.158;-1.586;2023-01-31T18:21:33;10.80;80.60
61374;DHT22;47242;48.158;-1.586;2023-01-31T18:23:59;10.80;80.50
61374;DHT22;47242;48.158;-1.586;2023-01-31T18:26:28;10.90;80.40
61374;DHT22;47242;48.158;-1.586;2023-01-31T18:28:54;10.80;80.50
61374;DHT22;47242;48.158;-1.586;2023-01-31T18:31:22;10.80;80.80
61374;DHT22;47242;48.158;-1.586;2023-01-31T18:33:48;10.80;80.70
61374;DHT22;47242;48.158;-1.586;2023-01-31T18:36:16;10.80;80.60
61374;DHT22;47242;48.158;-1.586;2023-01-31T18:38:44;10.80;80.50
61374;DHT22;47242;48.158;-1.586;2023-01-31T18:41:12;10.80;80.60
61374;DHT22;47242;48.158;-1.586;2023-01-31T18:43:42;10.80;80.70
61374;DHT22;47242;48.158;-1.586;2023-01-31T18:46:09;10.80;80.60
61374;DHT22;47242;48.158;-1.586;2023-01-31T18:48:34;10.80;80.60
61374;DHT22;47242;48.158;-1.586;2023-01-31T18:51:03;10.80;80.60
61374;DHT22;47242;48.158;-1.586;2023-01-31T18:53:32;10.80;80.70
61374;DHT22;47242;48.158;-1.586;2023-01-31T18:56:03;10.80;80.80
61374;DHT22;47242;48.158;-1.586;2023-01-31T18:58:38;10.80;80.70
61374;DHT22;47242;48.158;-1.586;2023-01-31T19:01:15;10.80;81.10
61374;DHT22;47242;48.158;-1.586;2023-01-31T19:03:42;10.80;81.00
61374;DHT22;47242;48.158;-1.586;2023-01-31T19:06:14;10.80;80.90
61374;DHT22;47242;48.158;-1.586;2023-01-31T19:08:41;10.80;80.80
61374;DHT22;47242;48.158;-1.586;2023-01-31T19:11:12;10.70;81.00
61374;DHT22;47242;48.158;-1.586;2023-01-31T19:13:39;10.70;80.70
61374;DHT22;47242;48.158;-1.586;2023-01-31T19:16:10;10.60;81.00
61374;DHT22;47242;48.158;-1.586;2023-01-31T19:18:36;10.60;80.90
61374;DHT22;47242;48.158;-1.586;2023-01-31T19:21:14;10.60;80.80
61374;DHT22;47242;48.158;-1.586;2023-01-31T19:23:40;10.60;80.70
61374;DHT22;47242;48.158;-1.586;2023-01-31T19:26:06;10.50;80.90
61374;DHT22;47242;48.158;-1.586;2023-01-31T19:28:35;10.50;80.80
61374;DHT22;47242;48.158;-1.586;2023-01-31T19:31:05;10.50;80.90
61374;DHT22;47242;48.158;-1.586;2023-01-31T19:33:31;10.50;80.90
61374;DHT22;47242;48.158;-1.586;2023-01-31T19:35:56;10.50;80.90
61374;DHT22;47242;48.158;-1.586;2023-01-31T19:38:22;10.50;80.90
61374;DHT22;47242;48.158;-1.586;2023-01-31T19:40:48;10.50;80.80
61374;DHT22;47242;48.158;-1.586;2023-01-31T19:43:19;10.50;80.60
61374;DHT22;47242;48.158;-1.586;2023-01-31T19:45:48;10.50;80.60
61374;DHT22;47242;48.158;-1.586;2023-01-31T19:48:17;10.50;80.70
61374;DHT22;47242;48.158;-1.586;2023-01-31T19:50:43;10.50;80.90
61374;DHT22;47242;48.158;-1.586;2023-01-31T19:53:08;10.60;80.80
61374;DHT22;47242;48.158;-1.586;2023-01-31T19:55:34;10.60;80.90
61374;DHT22;47242;48.158;-1.586;2023-01-31T19:57:59;10.60;81.10
61374;DHT22;47242;48.158;-1.586;2023-01-31T20:00:25;10.60;80.90
61374;DHT22;47242;48.158;-1.586;2023-01-31T20:02:53;10.60;80.90
61374;DHT22;47242;48.158;-1.586;2023-01-31T20:05:19;10.70;81.00
61374;DHT22;47242;48.158;-1.586;2023-01-31T20:07:44;10.70;81.00
61374;DHT22;47242;48.158;-1.586;2023-01-31T20:10:11;10.60;81.30
61374;DHT22;47242;48.158;-1.586;2023-01-31T20:12:37;10.60;81.70
61374;DHT22;47242;48.158;-1.586;2023-01-31T20:15:04;10.60;81.60
61374;DHT22;47242;48.158;-1.586;2023-01-31T20:17:31;10.60;81.30
61374;DHT22;47242;48.158;-1.586;2023-01-31T20:19:57;10.70;81.30
61374;DHT22;47242;48.158;-1.586;2023-01-31T20:22:22;10.60;81.70
61374;DHT22;47242;48.158;-1.586;2023-01-31T20:24:48;10.70;81.60
61374;DHT22;47242;48.158;-1.586;2023-01-31T20:27:14;10.70;81.50
61374;DHT22;47242;48.158;-1.586;2023-01-31T20:29:40;10.70;81.50
61374;DHT22;47242;48.158;-1.586;2023-01-31T20:32:06;10.60;81.60
61374;DHT22;47242;48.158;-1.586;2023-01-31T20:34:33;10.70;81.70
61374;DHT22;47242;48.158;-1.586;2023-01-31T20:36:59;10.60;81.90
61374;DHT22;47242;48.158;-1.586;2023-01-31T20:39:25;10.70;81.80
61374;DHT22;47242;48.158;-1.586;2023-01-31T20:41:51;10.70;82.10
61374;DHT22;47242;48.158;-1.586;2023-01-31T20:44:16;10.70;81.90
61374;DHT22;47242;48.158;-1.586;2023-01-31T20:46:42;10.70;82.10
61374;DHT22;47242;48.158;-1.586;2023-01-31T20:49:08;10.70;82.00
61374;DHT22;47242;48.158;-1.586;2023-01-31T20:51:33;10.70;82.10
61374;DHT22;47242;48.158;-1.586;2023-01-31T20:53:59;10.70;81.90
61374;DHT22;47242;48.158;-1.586;2023-01-31T20:56:24;10.70;82.20
61374;DHT22;47242;48.158;-1.586;2023-01-31T20:58:50;10.70;82.10
61374;DHT22;47242;48.158;-1.586;2023-01-31T21:01:16;10.70;81.90
61374;DHT22;47242;48.158;-1.586;2023-01-31T21:03:41;10.70;82.10
61374;DHT22;47242;48.158;-1.586;2023-01-31T21:06:07;10.70;82.00
61374;DHT22;47242;48.158;-1.586;2023-01-31T21:08:33;10.70;82.00
61374;DHT22;47242;48.158;-1.586;2023-01-31T21:11:09;10.70;82.20
61374;DHT22;47242;48.158;-1.586;2023-01-31T21:13:35;10.70;82.10
61374;DHT22;47242;48.158;-1.586;2023-01-31T21:16:03;10.70;82.10
61374;DHT22;47242;48.158;-1.586;2023-01-31T21:18:31;10.70;82.00
61374;DHT22;47242;48.158;-1.586;2023-01-31T21:20:58;10.70;82.00
61374;DHT22;47242;48.158;-1.586;2023-01-31T21:23:26;10.70;82.10
61374;DHT22;47242;48.158;-1.586;2023-01-31T21:25:52;10.70;82.20
61374;DHT22;47242;48.158;-1.586;2023-01-31T21:28:18;10.70;82.20
61374;DHT22;47242;48.158;-1.586;2023-01-31T21:30:43;10.70;82.10
61374;DHT22;47242;48.158;-1.586;2023-01-31T21:33:09;10.70;82.10
61374;DHT22;47242;48.158;-1.586;2023-01-31T21:35:35;10.70;82.10
61374;DHT22;47242;48.158;-1.586;2023-01-31T21:38:00;10.70;82.00
61374;DHT22;47242;48.158;-1.586;2023-01-31T21:40:26;10.70;82.20
61374;DHT22;47242;48.158;-1.586;2023-01-31T21:42:53;10.70;82.10
61374;DHT22;47242;48.158;-1.586;2023-01-31T21:45:19;10.70;82.10
61374;DHT22;47242;48.158;-1.586;2023-01-31T21:48:04;10.70;82.00
61374;DHT22;47242;48.158;-1.586;2023-01-31T21:50:48;10.80;82.00
61374;DHT22;47242;48.158;-1.586;2023-01-31T21:53:14;10.80;82.30
61374;DHT22;47242;48.158;-1.586;2023-01-31T21:55:39;10.70;82.20
61374;DHT22;47242;48.158;-1.586;2023-01-31T21:58:05;10.70;82.20
61374;DHT22;47242;48.158;-1.586;2023-01-31T22:00:31;10.70;82.60
61374;DHT22;47242;48.158;-1.586;2023-01-31T22:02:56;10.70;82.40
61374;DHT22;47242;48.158;-1.586;2023-01-31T22:05:22;10.60;82.50
61374;DHT22;47242;48.158;-1.586;2023-01-31T22:07:48;10.70;82.40
61374;DHT22;47242;48.158;-1.586;2023-01-31T22:10:13;10.60;82.80
61374;DHT22;47242;48.158;-1.586;2023-01-31T22:12:39;10.60;82.80
61374;DHT22;47242;48.158;-1.586;2023-01-31T22:15:05;10.60;82.90
61374;DHT22;47242;48.158;-1.586;2023-01-31T22:17:31;10.60;82.60
61374;DHT22;47242;48.158;-1.586;2023-01-31T22:19:56;10.70;82.50
61374;DHT22;47242;48.158;-1.586;2023-01-31T22:22:22;10.70;82.50
61374;DHT22;47242;48.158;-1.586;2023-01-31T22:24:47;10.70;82.50
61374;DHT22;47242;48.158;-1.586;2023-01-31T22:27:13;10.70;82.40
61374;DHT22;47242;48.158;-1.586;2023-01-31T22:29:39;10.60;82.50
